• Join FlightAware (Why Join?)
  • Login
  • US Flag 
03:23PM EDT


 

Airport Tracker/Info


-or-


 

Live Flight TrackerFlight Track Log ✈ N8558W ✈ 12-Feb-2014 ✈ T94 - KGKY

Flight Track Log - Related Links

Times and Time Zones

All times are in EST time to prevent confusion due to time zone crossing. See the N8558W flight status page for this flight to view local times or setup timezone preferences in your user account.

Time Position Orientation Groundspeed Altitude Reporting Facility
EST Latitude Longitude Course Direction KTS MPH feet Rate Location/Type
11:26AM 29.2903 -98.2831 24° Northeast 107 123 7,800  Level Houston Center
11:26AM 29.3078 -98.2742 24° Northeast 118 136 7,700 -120 Descending Houston Center
11:27AM 29.3197 -98.2656 32° Northeast 117 135 7,700 60 Level Houston Center
11:27AM 29.3353 -98.2564 27° Northeast 121 139 7,800 60 Climbing Houston Center
11:28AM 29.3492 -98.2478 28° Northeast 120 138 7,800  Level Houston Center
11:28AM 29.3653 -98.2383 27° Northeast 122 140 7,800 -120 Level Houston Center
11:29AM 29.3819 -98.2292 26° Northeast 122 140 7,700 -240 Descending Houston Center
11:29AM 29.3950 -98.2203 31° Northeast 126 145 7,600 -240 Descending Houston Center
11:30AM 29.4128 -98.2078 31° Northeast 128 147 7,500 -120 Descending Houston Center
11:30AM 29.4267 -98.1994 28° Northeast 131 151 7,500  Level Houston Center
11:31AM 29.4467 -98.1883 26° Northeast 126 145 7,500  Level Houston Center
11:31AM 29.4606 -98.1808 25° Northeast 124 143 7,500 60 Level Houston Center
11:32AM 29.4775 -98.1719 25° Northeast 123 142 7,600 120 Climbing Houston Center
11:32AM 29.4847 -98.1683 24° Northeast 122 140 7,600  Level Houston Center
11:33AM 29.5108 -98.1553 24° Northeast 121 139 7,600  Level Houston Center
11:33AM 29.5208 -98.1519 16° North 120 138 7,600  Level Houston Center
11:34AM 29.5419 -98.1414 24° Northeast 120 138 7,600  Level Houston Center
11:34AM 29.5531 -98.1358 24° Northeast 119 137 7,600  Level Houston Center
11:35AM 29.5728 -98.1289 17° North 117 135 7,600  Level Houston Center
11:35AM 29.5836 -98.1250 17° North 116 133 7,600  Level Houston Center
11:36AM 29.6061 -98.1164 18° North 117 135 7,600  Level Houston Center
11:36AM 29.6181 -98.1111 21° North 116 133 7,600  Level Houston Center
11:37AM 29.6367 -98.1039 19° North 116 133 7,600  Level Houston Center
11:37AM 29.6464 -98.1003 18° North 113 130 7,600 60 Level Houston Center
11:38AM 29.6678 -98.0911 20° North 113 130 7,700 60 Climbing Houston Center
11:38AM 29.6747 -98.0897 10° North 113 130 7,700  Level Houston Center
11:39AM 29.6978 -98.0781 24° Northeast 115 132 7,700  Level Houston Center
11:40AM 29.7297 -98.0617 24° Northeast 115 132 7,700  Level Houston Center
11:41AM 29.7603 -98.0492 20° North 113 130 7,700  Level Houston Center
11:42AM 29.7928 -98.0347 21° North 116 133 7,700 -60 Level Houston Center
11:43AM 29.8225 -98.0197 24° Northeast 118 136 7,600 -60 Descending Houston Center
11:44AM 29.8517 -98.0050 24° Northeast 110 127 7,600  Level Houston Center
11:45AM 29.8792 -97.9933 20° North 106 122 7,600  Level Houston Center
11:46AM 29.9072 -97.9814 20° North 105 121 7,600  Level Houston Center
11:47AM 29.9372 -97.9664 23° Northeast 108 124 7,700  Climbing Houston Center
11:48AM 29.9650 -97.9556 19° North 104 120 7,700  Level Houston Center
11:50AM 29.9953 -97.9450 17° North 105 121 7,700  Level Houston Center
11:51AM 30.0225 -97.9339 19° North 105 121 7,700  Level Houston Center
11:52AM 30.0519 -97.9258 13° North 102 117 7,700 -60 Level Houston Center
11:53AM 30.0800 -97.9158 17° North 104 120 7,600 -60 Descending Houston Center
11:54AM 30.1100 -97.9067 15° North 104 120 7,600  Level Houston Center
11:55AM 30.1367 -97.8969 17° North 101 116 7,700  Climbing Houston Center
11:56AM 30.1667 -97.8858 18° North 105 121 7,700  Level Houston Center
11:57AM 30.1931 -97.8733 22° Northeast 104 120 7,800  Climbing Houston Center
11:58AM 30.2211 -97.8578 26° Northeast 110 127 7,800  Level Houston Center
11:59AM 30.2481 -97.8436 24° Northeast 107 123 7,800 -60 Level Houston Center
12:00PM 30.2747 -97.8286 26° Northeast 105 121 7,700 -60 Descending Houston Center
12:01PM 30.3022 -97.8150 23° Northeast 106 122 7,700  Level Houston Center
12:02PM 30.3289 -97.7986 28° Northeast 107 123 7,800  Climbing Houston Center
12:03PM 30.3594 -97.7781 30° Northeast 108 124 7,700 -60 Descending Houston Center
12:04PM 30.3864 -97.7639 24° Northeast 106 122 7,700  Level Houston Center
12:05PM 30.4139 -97.7489 25° Northeast 107 123 7,700  Level Houston Center
12:06PM 30.4425 -97.7369 20° North 107 123 7,700  Level Houston Center
12:07PM 30.4689 -97.7211 27° Northeast 106 122 7,800  Climbing Houston Center
12:08PM 30.4989 -97.7131 13° North 108 124 7,700  Descending Houston Center
12:09PM 30.5278 -97.7033 16° North 107 123 7,800  Climbing Houston Center
12:10PM 30.5611 -97.6897 19° North 107 123 7,800  Level Houston Center
12:11PM 30.5894 -97.6767 22° Northeast 109 125 7,800 -60 Level Houston Center
12:12PM 30.6183 -97.6619 24° Northeast 111 128 7,700 -60 Descending Houston Center
12:13PM 30.6478 -97.6514 17° North 110 127 7,700  Level Houston Center
12:14PM 30.6775 -97.6442 12° North 107 123 7,700  Level Houston Center
12:15PM 30.7061 -97.6358 14° North 107 123 7,700  Level Houston Center
12:16PM 30.7344 -97.6231 21° North 108 124 7,700  Level Houston Center
12:17PM 30.7622 -97.6047 30° Northeast 111 128 7,700  Level Houston Center
12:19PM 30.7953 -97.5894 22° Northeast 109 125 7,700  Level Houston Center
12:20PM 30.8253 -97.5800 15° North 110 127 7,700  Level Houston Center
12:21PM 30.8542 -97.5717 14° North 107 123 7,700  Level Houston Center
12:22PM 30.8833 -97.5611 17° North 107 123 7,800  Climbing Houston Center
12:23PM 30.9131 -97.5531 13° North 108 124 7,800 -60 Level Houston Center
12:24PM 30.9431 -97.5408 19° North 111 128 7,700 -60 Descending Houston Center
12:25PM 30.9731 -97.5244 25° Northeast 116 133 7,700  Level Houston Center
12:26PM 31.0014 -97.5064 29° Northeast 115 132 7,700  Level Houston Center
12:27PM 31.0350 -97.4864 27° Northeast 114 131 7,700  Level Houston Center
12:28PM 31.0636 -97.4703 26° Northeast 113 130 7,700  Level Houston Center
12:29PM 31.0925 -97.4553 24° Northeast 113 130 7,700  Level Houston Center
12:30PM 31.1217 -97.4417 22° Northeast 112 129 7,800  Climbing Houston Center
12:30PM 31.1383 -97.4317 27° Northeast 113 130 7,700 120 Descending Fort Worth Center
12:31PM 31.1458 -97.4269 28° Northeast 113 130 7,900 60 Climbing Fort Worth Center
12:32PM 31.1756 -97.4075 29° Northeast 117 135 7,800 -120 Descending Fort Worth Center
12:33PM 31.2058 -97.3983 15° North 114 131 7,700 -60 Descending Fort Worth Center
12:34PM 31.2361 -97.3900 13° North 112 129 7,700  Level Fort Worth Center
12:35PM 31.2647 -97.3817 14° North 108 124 7,800  Climbing Fort Worth Center
12:36PM 31.2950 -97.3719 15° North 109 125 7,800 -60 Level Fort Worth Center
12:37PM 31.3258 -97.3589 20° North 113 130 7,700 -60 Descending Fort Worth Center
12:38PM 31.3606 -97.3414 23° Northeast 115 132 7,700  Level Fort Worth Center
12:39PM 31.3900 -97.3289 20° North 113 130 7,700  Level Fort Worth Center
12:40PM 31.4206 -97.3164 19° North 114 131 7,700  Level Fort Worth Center
12:41PM 31.4508 -97.3025 21° North 115 132 7,700  Level Fort Worth Center
12:42PM 31.4800 -97.2864 25° Northeast 115 132 7,700  Level Fort Worth Center
12:43PM 31.5100 -97.2700 25° Northeast 115 132 7,700  Level Fort Worth Center
12:44PM 31.5403 -97.2594 17° North 115 132 7,700  Level Fort Worth Center
12:45PM 31.5756 -97.2475 16° North 112 129 7,700  Level Fort Worth Center
12:46PM 31.6056 -97.2347 20° North 112 129 7,700  Level Fort Worth Center
12:47PM 31.6350 -97.2353 359° North 108 124 7,800  Climbing Fort Worth Center
12:48PM 31.6647 -97.2356 360° North 106 122 7,700 -60 Descending Fort Worth Center
12:49PM 31.6956 -97.2339 North 107 123 7,700 -120 Level Fort Worth Center
12:50PM 31.7269 -97.2322 North 110 127 7,500 -300 Descending Fort Worth Center
12:51PM 31.7589 -97.2331 359° North 112 129 7,200 -540 Descending Fort Worth Center
12:52PM 31.7964 -97.2375 354° North 113 130 6,500 -720 Descending Fort Worth Center
12:53PM 31.8278 -97.2422 353° North 113 130 5,800 -720 Descending Fort Worth Center
12:55PM 31.8608 -97.2433 358° North 115 132 5,000 -900 Descending Fort Worth Center
12:56PM 31.8961 -97.2333 14° North 122 140 4,000 -900 Descending Fort Worth Center
12:57PM 31.9300 -97.2183 21° North 127 146 3,200 -540 Descending Fort Worth Center
12:58PM 31.9617 -97.2086 15° North 122 140 2,900 -240 Descending Fort Worth Center
12:59PM 31.9989 -97.2028 North 116 133 2,800 60 Descending Fort Worth Center
01:01PM 32.0628 -97.1936 North 113 130 3,100 120 Climbing Fort Worth Center
01:02PM 32.0931 -97.1872 10° North 110 127 3,200 60 Climbing Fort Worth Center
01:03PM 32.1269 -97.1858 North 115 132 3,300  Climbing Fort Worth Center
01:04PM 32.1542 -97.1811 North 111 128 3,300 60 Level Fort Worth Center
01:05PM 32.1856 -97.1783 North 111 128 3,500 180 Climbing Fort Worth Center
01:06PM 32.2208 -97.1747 North 109 125 3,700 120 Climbing Fort Worth Center
01:07PM 32.2558 -97.1669 11° North 119 137 3,800  Climbing Fort Worth Center
01:08PM 32.2892 -97.1589 12° North 122 140 3,700 -120 Descending Fort Worth Center
01:09PM 32.3231 -97.1511 11° North 121 139 3,600 -300 Descending Fort Worth Center
01:10PM 32.3592 -97.1394 15° North 126 145 3,100 -480 Descending Fort Worth Center
01:11PM 32.3933 -97.1300 13° North 125 144 2,700 -360 Descending Fort Worth Center
01:13PM 32.4500 -97.1167 11° North 116 133 2,200 -180 Descending Dallas / Fort Worth TRACON
01:14PM 32.4833 -97.1167 360° North 123 142 2,300 -60 Climbing Dallas / Fort Worth TRACON
01:15PM 32.5167 -97.1167 360° North 123 142 2,100 -180 Descending Dallas / Fort Worth TRACON
01:16PM 32.5500 -97.1167 360° North 122 140 2,000  Descending Dallas / Fort Worth TRACON
01:17PM 32.5833 -97.1000 23° Northeast 125 144 2,200 -120 Climbing Dallas / Fort Worth TRACON
01:18PM 32.6167 -97.1000 360° North 118 136 1,800 -480 Descending Dallas / Fort Worth TRACON
01:19PM 32.6500 -97.0833 23° Northeast 109 125 1,300 -540 Descending Dallas / Fort Worth TRACON